Cedar City Regional Airport Cedar City US
ICAO: KCDC
IATA: CDC
Category: Medium
Scheduled Services: Yes

Elevation: 5622 ft
TransAlt. 18000 ft.

Airport Communications:
ASOS:119.025
CTAF:123.6
RDO:122.2
UNICOM:122.95

KCDC Zoom In..

Runways:

(A) RW 02 length 8653 ft width 150 ft
---- / hdg 20

(B) RW 08 length 4822 ft width 60 ft
---- / hdg 83

(C) RW 20 length 8653 ft width 150 ft
ILS 110.10 / hdg 200

(D) RW 26 length 4822 ft width 60 ft
---- / hdg 263

Location; KCDC
Day. 17 / Time. 06.53 Zulu
* Altimeter: 30.19
* Temperature: 24° c. 75.2°f.
* Wind from: 160° Speed 06 kn.
Dewpoint: 11° c.
Visibility: 10 Statute Miles.
Clouds: Clear (automated report).

KCDC 170653Z AUTO 16006KT 10SM CLR 24/11 A3019 RMK AO2 SLP123 T02440111 403440156


Wind From 160°
Speed 06 kn.

 
 
jpsmedia.com for Web Design worldairports.se 2018   terms of use